CYNR

METAR CYNR 032000Z AUTO 19002KT 3SM -SN SCT005 OVC011 M18/M21 A2978 RMK AO2 PRESFR SLP134
METAR
LOCATION
CYNR
DATE - TIME
032000Z
WIND
190 TRUE @ 2 KNOTS
VISIBILITY
3SM
RUNWAY VISUAL RANGE
NOT REPORTED
WEATHER
SNOW, SLIGHT
CLOUDINESS
SCT005 OVC011
TEMP / DEWPOINT
-18 ºC / -21 ºC
ALTIMETER
29.78 in. Hg
RECENT WEATHER
NOT REPORTED
WIND SHEAR
NOT REPORTED
REMARKS
RMK AO2 PRESFR SLP134
SEA LEVEL PRESSURE: hPa

CYNR

SPECI CYNR 031937Z AUTO 20003KT 5SM -SN FEW006 BKN010 OVC064 M18/M21 A2979 RMK AO2 PRESFR SLP139
SPECI
LOCATION
CYNR
DATE - TIME
031937Z
WIND
200 TRUE @ 3 KNOTS
VISIBILITY
5SM
RUNWAY VISUAL RANGE
NOT REPORTED
WEATHER
SNOW, SLIGHT
CLOUDINESS
FEW006 BKN010 OVC064
TEMP / DEWPOINT
-18 ºC / -21 ºC
ALTIMETER
29.79 in. Hg
RECENT WEATHER
NOT REPORTED
WIND SHEAR
NOT REPORTED
REMARKS
RMK AO2 PRESFR SLP139
SEA LEVEL PRESSURE: hPa

CYNR

SPECI CYNR 031913Z AUTO 00000KT 3SM -SN FEW006 SCT009 BKN052 M19/M21 A2979 RMK AO2 PRESFR SLP141
SPECI
LOCATION
CYNR
DATE - TIME
031913Z
WIND
CALM WIND
VISIBILITY
3SM
RUNWAY VISUAL RANGE
NOT REPORTED
WEATHER
SNOW, SLIGHT
CLOUDINESS
FEW006 SCT009 BKN052
TEMP / DEWPOINT
-19 ºC / -21 ºC
ALTIMETER
29.79 in. Hg
RECENT WEATHER
NOT REPORTED
WIND SHEAR
NOT REPORTED
REMARKS
RMK AO2 PRESFR SLP141
SEA LEVEL PRESSURE: hPa

Your time UTC time
 
 
Weather data provided by AXYS Technologies Inc., www.axystechnologies.com
 
Station History